Time;durP1;ratioP1;P1;durP2;ratioP2;P2;SDS_P1;SDS_P2;PMS_P1;PMS_P2;Temp;Humidity;BMP_temperature;BMP_pressure;BME280_temperature;BME280_humidity;BME280_pressure;Samples;Min_cycle;Max_cycle;Signal;HPM_P1;HPM_P2
2021/12/19 00:02:30;;;;;;;13.02;5.97;;;;;;;6.24;100.00;103577.88;5033531;28;20045;-53
2021/12/19 00:10:31;;;;;;;15.07;7.18;;;;;;;6.02;100.00;103566.63;5034555;28;20061;-53
2021/12/19 00:13:00;;;;;;;13.70;6.40;;;;;;;6.08;100.00;103566.59;5034416;28;20049;-53
2021/12/19 00:15:28;;;;;;;16.35;6.30;;;;;;;5.96;100.00;103563.97;5033266;28;20045;-54
2021/12/19 00:17:56;;;;;;;14.48;6.45;;;;;;;5.89;100.00;103564.00;5033658;28;20053;-53
2021/12/19 00:20:26;;;;;;;13.15;6.13;;;;;;;5.82;100.00;103559.69;5031259;28;20060;-51
2021/12/19 00:23:14;;;;;;;11.68;5.63;;;;;;;5.73;100.00;103559.69;5032663;28;20129;-54
2021/12/19 00:25:43;;;;;;;11.45;5.28;;;;;;;5.74;100.00;103558.81;5033488;28;20033;-52
2021/12/19 00:28:11;;;;;;;12.55;5.45;;;;;;;5.78;100.00;103554.44;5031594;28;20100;-53
2021/12/19 00:30:39;;;;;;;10.70;4.70;;;;;;;5.76;100.00;103549.22;5031980;28;20532;-50
2021/12/19 00:33:07;;;;;;;10.32;5.00;;;;;;;5.69;100.00;103550.13;5028766;28;20143;-53
2021/12/19 00:35:37;;;;;;;10.43;4.55;;;;;;;5.65;100.00;103546.63;5034284;28;20045;-52
2021/12/19 00:38:05;;;;;;;11.60;4.85;;;;;;;5.65;100.00;103549.25;5030493;28;20041;-54
2021/12/19 00:40:34;;;;;;;11.95;5.47;;;;;;;5.65;100.00;103546.63;5012444;28;20145;-55
2021/12/19 00:43:07;;;;;;;11.50;5.10;;;;;;;5.60;100.00;103543.16;5011176;28;20173;-52
2021/12/19 00:45:36;;;;;;;11.70;5.68;;;;;;;5.55;100.00;103532.72;5013647;28;20107;-54
2021/12/19 00:48:07;;;;;;;10.73;5.25;;;;;;;5.47;100.00;103547.53;5011746;28;20049;-53
2021/12/19 00:50:37;;;;;;;10.82;5.13;;;;;;;5.52;100.00;103537.97;5029742;28;20068;-52
2021/12/19 00:53:05;;;;;;;11.90;5.20;;;;;;;5.42;100.00;103538.81;5032851;28;20112;-53
2021/12/19 00:55:35;;;;;;;11.00;5.03;;;;;;;5.41;100.00;103527.53;5033834;28;20136;-53
2021/12/19 00:58:04;;;;;;;11.60;4.88;;;;;;;5.46;100.00;103527.50;5033817;28;20111;-54
2021/12/19 01:00:35;;;;;;;12.52;5.10;;;;;;;5.44;100.00;103529.25;5032104;28;20554;-51
2021/12/19 01:03:04;;;;;;;11.88;5.28;;;;;;;5.45;100.00;103525.75;5033033;28;20040;-52
2021/12/19 01:05:37;;;;;;;12.23;5.35;;;;;;;5.43;100.00;103519.69;5033382;28;20049;-53
2021/12/19 01:08:08;;;;;;;12.50;5.70;;;;;;;5.42;100.00;103518.78;5033696;28;20543;-55
2021/12/19 01:10:37;;;;;;;10.57;4.90;;;;;;;5.38;100.00;103516.19;5032388;28;20503;-52
2021/12/19 01:13:06;;;;;;;11.70;5.57;;;;;;;5.44;100.00;103515.31;5032638;28;20468;-53
2021/12/19 01:15:34;;;;;;;10.32;5.03;;;;;;;5.48;100.00;103511.84;5031353;28;20053;-52
2021/12/19 01:18:03;;;;;;;11.00;4.63;;;;;;;5.40;100.00;103515.34;5029464;28;20107;-51
2021/12/19 01:20:34;;;;;;;13.15;5.78;;;;;;;5.45;100.00;103514.47;5031274;28;20099;-53
2021/12/19 01:23:03;;;;;;;12.38;4.95;;;;;;;5.45;100.00;103523.16;5033287;28;20047;-54
2021/12/19 01:25:33;;;;;;;11.00;5.13;;;;;;;5.43;100.00;103519.69;5033226;28;20049;-54
2021/12/19 01:28:02;;;;;;;13.18;5.53;;;;;;;5.33;100.00;103508.38;5032176;28;20049;-52
2021/12/19 01:30:30;;;;;;;11.68;4.95;;;;;;;5.41;100.00;103506.63;5033242;28;20045;-50
2021/12/19 01:32:58;;;;;;;11.70;5.53;;;;;;;5.41;100.00;103510.97;5032834;28;20115;-53
2021/12/19 01:35:27;;;;;;;12.27;4.68;;;;;;;5.44;100.00;103503.16;5032275;28;20566;-53
2021/12/19 01:37:55;;;;;;;12.85;4.70;;;;;;;5.46;100.00;103504.00;5033178;28;20095;-54
2021/12/19 01:40:24;;;;;;;12.35;4.68;;;;;;;5.38;100.00;103503.16;5032856;28;20049;-53
2021/12/19 01:42:56;;;;;;;10.65;4.28;;;;;;;5.39;100.00;103512.72;5031940;28;20064;-53
2021/12/19 01:45:27;;;;;;;11.25;4.22;;;;;;;5.37;100.00;103506.63;5032682;28;20072;-53
2021/12/19 01:47:56;;;;;;;10.07;4.13;;;;;;;5.40;100.00;103504.03;5013024;28;20410;-54
2021/12/19 01:50:25;;;;;;;10.48;4.00;;;;;;;5.48;100.00;103507.50;5011246;28;20409;-52
2021/12/19 01:52:53;;;;;;;9.95;4.20;;;;;;;5.45;100.00;103504.03;5029182;28;20053;-54
2021/12/19 01:55:22;;;;;;;12.88;4.68;;;;;;;5.44;100.00;103505.78;5025383;28;20052;-53
2021/12/19 01:57:51;;;;;;;12.57;4.47;;;;;;;5.43;100.00;103493.59;5030551;28;20053;-53
2021/12/19 02:00:24;;;;;;;12.60;5.07;;;;;;;5.46;100.00;103493.56;5032865;28;20428;-54
2021/12/19 02:02:54;;;;;;;11.20;4.47;;;;;;;5.49;100.00;103495.31;5032449;28;20060;-54
2021/12/19 02:05:24;;;;;;;12.32;5.22;;;;;;;5.51;100.00;103491.84;5032002;28;20500;-54
2021/12/19 02:07:54;;;;;;;11.88;5.07;;;;;;;5.51;100.00;103491.84;5032400;28;20075;-52
2021/12/19 02:10:25;;;;;;;12.63;5.45;;;;;;;5.44;100.00;103490.09;5030805;28;20061;-51
2021/12/19 02:12:54;;;;;;;14.25;5.75;;;;;;;5.46;100.00;103483.13;5028217;28;20057;-52
2021/12/19 02:15:27;;;;;;;12.52;6.28;;;;;;;5.42;100.00;103477.03;5032034;28;20576;-53
2021/12/19 02:17:59;;;;;;;15.18;6.25;;;;;;;5.48;100.00;103480.50;5031165;28;20049;-52
2021/12/19 02:20:33;;;;;;;15.17;6.63;;;;;;;5.51;100.00;103481.38;5032414;28;20045;-54
2021/12/19 02:23:02;;;;;;;16.38;6.03;;;;;;;5.62;100.00;103478.75;5029977;28;20119;-54
2021/12/19 02:25:30;;;;;;;13.20;5.82;;;;;;;5.57;100.00;103468.31;5029958;28;20140;-52
2021/12/19 02:27:59;;;;;;;15.43;6.63;;;;;;;5.57;100.00;103459.63;5032597;28;20481;-52
2021/12/19 02:30:27;;;;;;;14.68;6.10;;;;;;;5.57;100.00;103454.41;5032220;28;20041;-53
2021/12/19 02:32:56;;;;;;;16.77;6.80;;;;;;;5.57;100.00;103455.25;5032460;28;20103;-52
2021/12/19 02:35:28;;;;;;;15.10;6.00;;;;;;;5.47;100.00;103456.16;5031947;28;20608;-53
2021/12/19 02:49:37;;;;;;;10.70;4.38;;;;;;;5.42;100.00;103442.25;5032269;28;20052;-54
2021/12/19 02:52:12;;;;;;;8.43;3.10;;;;;;;5.42;100.00;103434.41;5031651;28;20041;-52
2021/12/19 02:54:41;;;;;;;7.28;2.22;;;;;;;5.39;100.00;103442.25;5029244;28;20089;-54
2021/12/19 02:57:09;;;;;;;6.60;2.10;;;;;;;5.35;100.00;103444.00;5032452;28;20049;-54
2021/12/19 02:59:38;;;;;;;5.10;1.90;;;;;;;5.38;100.00;103449.19;5035902;28;20041;-53
2021/12/19 03:02:06;;;;;;;5.75;2.40;;;;;;;5.40;100.00;103446.63;5036223;28;20045;-51
2021/12/19 03:04:34;;;;;;;5.90;1.85;;;;;;;5.40;100.00;103441.41;5036004;28;20103;-53
2021/12/19 03:07:03;;;;;;;6.28;2.15;;;;;;;5.43;100.00;103425.72;5035722;28;20136;-52
2021/12/19 03:09:51;;;;;;;6.15;2.40;;;;;;;5.39;100.00;103437.03;5036012;28;20054;-52
2021/12/19 03:12:36;;;;;;;7.38;2.22;;;;;;;5.40;100.00;103423.97;5035596;28;20048;-51
2021/12/19 03:17:58;;;;;;;10.13;2.70;;;;;;;5.48;100.00;103425.69;5035758;28;20056;-52
2021/12/19 03:20:28;;;;;;;6.32;1.95;;;;;;;5.48;100.00;103423.97;5035772;28;20057;-52
2021/12/19 03:22:58;;;;;;;6.28;1.83;;;;;;;5.54;100.00;103423.09;5033813;28;20072;-52
2021/12/19 03:25:27;;;;;;;8.27;2.45;;;;;;;5.51;100.00;103421.34;5032641;28;20053;-53
2021/12/19 03:27:57;;;;;;;8.10;2.50;;;;;;;5.51;100.00;103423.09;5035140;28;20151;-51
2021/12/19 03:30:25;;;;;;;7.75;2.60;;;;;;;5.53;100.00;103410.91;5035809;28;20657;-53
2021/12/19 03:32:54;;;;;;;8.85;3.22;;;;;;;5.52;100.00;103414.38;5035309;28;20060;-52
2021/12/19 03:35:25;;;;;;;8.25;3.30;;;;;;;5.52;100.00;103404.81;5033701;28;20397;-53
2021/12/19 03:37:53;;;;;;;9.95;3.22;;;;;;;5.63;100.00;103406.50;5031111;28;20080;-54
2021/12/19 03:40:24;;;;;;;10.00;3.92;;;;;;;5.55;100.00;103394.34;5034673;28;20095;-55
2021/12/19 03:42:54;;;;;;;9.75;3.40;;;;;;;5.56;100.00;103395.22;5035216;28;20054;-54
2021/12/19 03:45:25;;;;;;;10.00;3.45;;;;;;;5.55;100.00;103385.66;5035015;28;20045;-53
2021/12/19 03:47:53;;;;;;;10.40;3.30;;;;;;;5.59;100.00;103382.19;5033732;28;20112;-53
2021/12/19 03:50:23;;;;;;;8.60;3.08;;;;;;;5.63;100.00;103383.00;5035092;28;20111;-54
2021/12/19 03:52:53;;;;;;;9.07;3.33;;;;;;;5.58;100.00;103375.22;5032706;28;20094;-53
2021/12/19 03:55:21;;;;;;;10.50;3.47;;;;;;;5.64;100.00;103382.16;5031781;28;20049;-53
2021/12/19 03:57:50;;;;;;;8.88;2.83;;;;;;;5.61;100.00;103375.19;5023706;28;20500;-55
2021/12/19 04:00:23;;;;;;;9.73;2.90;;;;;;;5.64;100.00;103375.16;5013456;28;20049;-55
2021/12/19 04:02:55;;;;;;;12.45;3.42;;;;;;;5.63;100.00;103365.63;5011145;28;20663;-53
2021/12/19 04:05:24;;;;;;;10.15;4.00;;;;;;;5.62;100.00;103363.00;5014184;28;20053;-53
2021/12/19 04:07:53;;;;;;;11.38;3.65;;;;;;;5.66;100.00;103362.09;5024105;28;20083;-54
2021/12/19 04:10:23;;;;;;;10.75;3.55;;;;;;;5.64;100.00;103345.59;5034687;28;20052;-53
2021/12/19 04:12:52;;;;;;;11.73;3.67;;;;;;;5.71;100.00;103340.34;5034405;28;20460;-55
2021/12/19 04:15:20;;;;;;;10.45;3.45;;;;;;;5.78;100.00;103341.19;5034680;28;20057;-54
2021/12/19 04:17:49;;;;;;;12.98;3.85;;;;;;;5.77;100.00;103336.84;5029734;28;20049;-54
2021/12/19 04:20:19;;;;;;;11.23;3.60;;;;;;;5.73;100.00;103338.56;5030373;28;20370;-54
2021/12/19 04:22:49;;;;;;;12.23;3.90;;;;;;;5.78;100.00;103341.19;5034403;28;20049;-55
2021/12/19 04:25:18;;;;;;;9.98;3.75;;;;;;;5.82;100.00;103334.19;5034313;28;20050;-53
2021/12/19 04:27:47;;;;;;;9.40;4.15;;;;;;;5.80;100.00;103320.28;5033100;28;20404;-54
2021/12/19 04:30:17;;;;;;;10.77;3.95;;;;;;;5.82;100.00;103322.00;5030090;28;20048;-54
2021/12/19 04:32:56;;;;;;;10.77;3.97;;;;;;;5.83;100.00;103315.88;5033426;28;20053;-54
2021/12/19 04:35:28;;;;;;;12.43;4.65;;;;;;;5.81;100.00;103316.75;5031015;28;20092;-54
2021/12/19 04:38:29;;;;;;;10.98;4.63;;;;;;;5.80;100.00;103322.88;5033010;28;20123;-53
2021/12/19 04:41:08;;;;;;;10.98;4.18;;;;;;;5.80;100.00;103318.53;5031294;28;20132;-52
2021/12/19 04:52:18;;;;;;;11.70;4.40;;;;;;;5.76;100.00;103307.22;5032805;28;20099;-53
2021/12/19 04:54:59;;;;;;;12.75;4.55;;;;;;;5.80;100.00;103309.84;5031156;28;20148;-52
2021/12/19 04:57:35;;;;;;;11.82;4.38;;;;;;;5.81;100.00;103314.16;5019430;28;20042;-52
2021/12/19 05:00:06;;;;;;;14.40;4.65;;;;;;;5.83;100.00;103304.59;5033577;28;20045;-54
2021/12/19 05:02:45;;;;;;;13.73;4.60;;;;;;;5.86;100.00;103307.16;5031479;28;20041;-54
2021/12/19 05:16:14;;;;;;;13.10;5.25;;;;;;;5.85;100.00;103288.03;5031052;28;20052;-54
2021/12/19 05:18:44;;;;;;;14.85;5.25;;;;;;;5.85;100.00;103288.03;5033215;28;20539;-53
2021/12/19 05:21:17;;;;;;;11.57;4.80;;;;;;;5.92;100.00;103291.47;5033450;28;20107;-56
2021/12/19 05:24:15;;;;;;;14.85;6.07;;;;;;;5.93;100.00;103291.47;5031723;28;20051;-53
2021/12/19 05:26:43;;;;;;;15.77;6.18;;;;;;;5.95;100.00;103298.44;5028024;28;20104;-53
2021/12/19 05:29:14;;;;;;;13.50;5.32;;;;;;;5.93;100.00;103308.84;5039168;28;20413;-52
2021/12/19 05:31:43;;;;;;;14.52;5.38;;;;;;;5.96;100.00;103303.63;5048450;28;20049;-56
2021/12/19 05:34:11;;;;;;;13.93;5.43;;;;;;;5.99;100.00;103294.94;5046123;28;20447;-55
2021/12/19 05:45:13;;;;;;;11.38;4.82;;;;;;;5.99;100.00;103292.34;5034231;28;20059;-54
2021/12/19 05:47:42;;;;;;;12.15;4.95;;;;;;;6.01;100.00;103301.91;5030232;28;20112;-54
2021/12/19 05:50:11;;;;;;;11.68;4.90;;;;;;;6.00;100.00;103302.78;5030804;28;20044;-54
2021/12/19 05:52:39;;;;;;;11.75;4.15;;;;;;;6.03;100.00;103296.66;5031056;28;20049;-53
2021/12/19 05:55:10;;;;;;;12.25;5.07;;;;;;;6.08;100.00;103298.34;5029362;28;20099;-54
2021/12/19 05:57:38;;;;;;;11.70;5.00;;;;;;;6.12;100.00;103296.56;5026366;28;21850;-56
2021/12/19 06:00:09;;;;;;;12.60;4.97;;;;;;;6.14;100.00;103304.44;5024156;28;20092;-53
2021/12/19 06:02:38;;;;;;;12.95;5.07;;;;;;;6.12;100.00;103299.19;5026528;28;20091;-52
2021/12/19 06:05:07;;;;;;;13.90;5.70;;;;;;;6.14;100.00;103292.22;5026354;28;20049;-53
2021/12/19 06:07:35;;;;;;;14.10;6.18;;;;;;;6.16;100.00;103282.63;5032005;28;20145;-51
2021/12/19 06:10:05;;;;;;;12.30;5.32;;;;;;;6.24;100.00;103279.94;5046696;28;20052;-53
2021/12/19 06:12:34;;;;;;;13.07;5.63;;;;;;;6.19;100.00;103282.59;5041241;28;20467;-52
2021/12/19 06:15:03;;;;;;;14.55;5.82;;;;;;;6.09;100.00;103279.19;5031277;28;20428;-55
2021/12/19 06:17:31;;;;;;;14.70;6.05;;;;;;;6.08;100.00;103271.34;5022889;28;20488;-53
2021/12/19 06:19:59;;;;;;;10.50;3.95;;;;;;;6.06;100.00;103273.97;5016506;28;20439;-54
2021/12/19 06:22:27;;;;;;;10.38;3.80;;;;;;;6.12;100.00;103265.22;5029555;28;20060;-53
2021/12/19 06:24:55;;;;;;;8.75;3.15;;;;;;;6.10;100.00;103272.22;5032431;28;20046;-53
2021/12/19 06:27:23;;;;;;;8.65;1.73;;;;;;;5.99;100.00;103276.66;5027517;28;20056;-54
2021/12/19 06:29:52;;;;;;;5.03;1.70;;;;;;;6.00;100.00;103274.03;5027647;28;20045;-51
2021/12/19 06:32:21;;;;;;;4.40;1.25;;;;;;;5.99;100.00;103269.69;5031446;28;20495;-53
2021/12/19 06:34:49;;;;;;;4.25;1.40;;;;;;;6.04;100.00;103264.41;5030413;28;20064;-51
2021/12/19 06:37:17;;;;;;;5.53;1.73;;;;;;;5.99;100.00;103267.06;5028330;28;20428;-54
2021/12/19 06:39:46;;;;;;;4.43;1.60;;;;;;;6.00;100.00;103270.53;5027411;28;20038;-53
2021/12/19 06:42:15;;;;;;;4.68;1.40;;;;;;;6.01;100.00;103259.22;5033123;28;20395;-52
2021/12/19 06:44:43;;;;;;;4.72;1.48;;;;;;;6.00;100.00;103260.97;5026475;28;20045;-51
2021/12/19 06:47:13;;;;;;;3.72;1.30;;;;;;;6.01;100.00;103264.44;5029684;28;20040;-53
2021/12/19 06:49:41;;;;;;;3.35;1.00;;;;;;;5.98;100.00;103261.84;5023530;28;20049;-49
2021/12/19 06:52:09;;;;;;;2.85;1.00;;;;;;;5.88;100.00;103261.03;5022034;28;20190;-52
2021/12/19 06:54:37;;;;;;;3.42;1.10;;;;;;;5.88;100.00;103261.88;5024985;28;20137;-49
2021/12/19 06:57:06;;;;;;;3.00;0.90;;;;;;;5.88;100.00;103269.72;5030964;28;20049;-52
2021/12/19 06:59:34;;;;;;;2.58;1.17;;;;;;;5.90;100.00;103274.94;5023590;28;20061;-53
2021/12/19 07:02:02;;;;;;;1.88;0.70;;;;;;;5.79;100.00;103269.78;5022010;28;20156;-53
2021/12/19 07:04:31;;;;;;;1.83;0.90;;;;;;;5.83;100.00;103263.66;5022814;28;20477;-53
2021/12/19 07:06:59;;;;;;;2.00;0.70;;;;;;;5.80;100.00;103271.53;5029305;28;20052;-53
2021/12/19 07:09:27;;;;;;;1.33;0.70;;;;;;;5.80;100.00;103276.75;5031731;28;20099;-52
2021/12/19 07:11:56;;;;;;;1.05;0.57;;;;;;;5.76;100.00;103273.28;5031742;28;20041;-52
2021/12/19 07:14:24;;;;;;;1.33;0.57;;;;;;;5.76;100.00;103272.41;5031541;28;20057;-53
2021/12/19 07:16:52;;;;;;;1.98;0.80;;;;;;;5.71;100.00;103266.34;5031909;28;20064;-52
2021/12/19 07:19:20;;;;;;;1.42;0.60;;;;;;;5.69;100.00;103261.13;5032148;28;20501;-55
2021/12/19 07:21:49;;;;;;;1.33;0.68;;;;;;;5.68;100.00;103259.38;5031262;28;20136;-51
2021/12/19 07:24:18;;;;;;;1.65;0.60;;;;;;;5.67;100.00;103248.97;5028897;28;20048;-53
2021/12/19 07:26:46;;;;;;;2.17;0.90;;;;;;;5.59;100.00;103251.63;5033239;28;20096;-51
2021/12/19 07:29:14;;;;;;;1.77;0.82;;;;;;;5.61;100.00;103251.63;5040081;28;20108;-51
2021/12/19 07:31:42;;;;;;;2.15;1.10;;;;;;;5.63;100.00;103253.34;5031820;28;20049;-53
2021/12/19 07:34:11;;;;;;;1.23;0.60;;;;;;;5.64;100.00;103252.44;5031663;28;20049;-53
2021/12/19 07:36:42;;;;;;;0.95;0.80;;;;;;;5.67;100.00;103254.19;5030713;28;20099;-52
2021/12/19 07:39:23;;;;;;;1.50;0.80;;;;;;;5.66;100.00;103249.81;5029276;28;20045;-52
2021/12/19 07:41:51;;;;;;;2.25;1.15;;;;;;;5.65;100.00;103248.13;5032119;28;20084;-55
2021/12/19 07:44:19;;;;;;;1.02;0.70;;;;;;;5.70;100.00;103241.09;5035226;28;20045;-55
2021/12/19 07:46:48;;;;;;;2.55;0.93;;;;;;;5.61;100.00;103247.25;5035316;28;20362;-55
2021/12/19 07:49:16;;;;;;;1.42;0.70;;;;;;;5.65;100.00;103240.28;5035116;28;20524;-53
2021/12/19 07:51:44;;;;;;;2.17;0.90;;;;;;;5.70;100.00;103241.09;5034010;28;20084;-52
2021/12/19 07:54:13;;;;;;;2.95;1.10;;;;;;;5.63;100.00;103239.41;5032505;28;20053;-53
2021/12/19 07:56:42;;;;;;;1.63;0.70;;;;;;;5.64;100.00;103228.09;5034912;28;20081;-52
2021/12/19 07:59:10;;;;;;;3.28;1.00;;;;;;;5.64;100.00;103228.09;5035038;28;20053;-54
2021/12/19 08:01:38;;;;;;;1.83;0.93;;;;;;;5.68;100.00;103222.84;5035105;28;20049;-55
2021/12/19 08:04:06;;;;;;;3.22;1.30;;;;;;;5.70;100.00;103223.72;5032882;28;20041;-54
2021/12/19 08:06:34;;;;;;;2.95;0.98;;;;;;;5.67;100.00;103228.06;5032461;28;20063;-53
2021/12/19 08:09:08;;;;;;;3.15;1.00;;;;;;;5.73;100.00;103230.66;5034447;28;20085;-53
2021/12/19 08:11:40;;;;;;;3.10;0.90;;;;;;;5.72;100.00;103232.38;5034869;28;20507;-54
2021/12/19 08:14:10;;;;;;;3.03;1.00;;;;;;;5.74;100.00;103227.19;5034580;28;20061;-54
2021/12/19 08:16:38;;;;;;;2.17;1.10;;;;;;;5.82;100.00;103229.72;5034684;28;20203;-56
2021/12/19 08:19:06;;;;;;;3.55;1.45;;;;;;;5.76;100.00;103225.41;5034365;28;20447;-52
2021/12/19 08:21:35;;;;;;;2.65;0.98;;;;;;;5.80;100.00;103211.44;5022714;28;20041;-54
2021/12/19 08:24:09;;;;;;;1.70;0.93;;;;;;;5.83;100.00;103216.63;5034662;28;20037;-54
2021/12/19 08:26:40;;;;;;;1.05;0.60;;;;;;;5.81;100.00;103215.81;5034510;28;20120;-53
2021/12/19 08:29:11;;;;;;;2.47;0.93;;;;;;;5.79;100.00;103220.16;5035757;28;20111;-54
2021/12/19 08:31:39;;;;;;;1.58;0.80;;;;;;;5.79;100.00;103227.13;5044549;28;20516;-51
2021/12/19 08:34:08;;;;;;;2.20;0.82;;;;;;;5.84;100.00;103217.53;5047623;28;20098;-54
2021/12/19 08:36:36;;;;;;;2.22;0.93;;;;;;;5.88;100.00;103220.09;5039149;28;20064;-54
2021/12/19 08:39:05;;;;;;;2.33;1.00;;;;;;;5.87;100.00;103217.50;5035887;28;22046;-54
2021/12/19 08:41:38;;;;;;;1.40;0.70;;;;;;;5.86;100.00;103215.75;5020857;28;20033;-52
2021/12/19 08:44:07;;;;;;;2.53;0.90;;;;;;;5.94;100.00;103219.19;5037039;28;20060;-54
2021/12/19 08:46:36;;;;;;;2.08;0.80;;;;;;;5.94;100.00;103221.78;5034205;28;20041;-53
2021/12/19 08:49:05;;;;;;;1.63;0.90;;;;;;;5.87;100.00;103220.97;5029852;28;20128;-51
2021/12/19 08:51:34;;;;;;;2.17;0.80;;;;;;;5.89;100.00;103221.84;5031928;28;20250;-51
2021/12/19 08:54:02;;;;;;;0.73;0.60;;;;;;;5.93;100.00;103218.31;5033583;28;20049;-54
2021/12/19 08:56:31;;;;;;;0.98;0.68;;;;;;;5.92;100.00;103216.59;5034522;28;20049;-52
2021/12/19 08:59:01;;;;;;;2.15;0.60;;;;;;;5.96;100.00;103213.94;5039854;28;20049;-52
2021/12/19 09:01:31;;;;;;;2.42;0.80;;;;;;;5.95;100.00;103207.84;5034343;28;20038;-53
2021/12/19 09:03:59;;;;;;;2.10;0.80;;;;;;;6.02;100.00;103206.09;5029693;28;20090;-54
2021/12/19 09:06:28;;;;;;;1.48;0.47;;;;;;;6.00;100.00;103205.22;5032696;28;20103;-54
2021/12/19 09:08:56;;;;;;;1.92;0.80;;;;;;;6.00;100.00;103205.22;5037290;28;20049;-54
2021/12/19 09:11:25;;;;;;;1.55;0.80;;;;;;;6.00;100.00;103203.50;5036655;28;20049;-52
2021/12/19 09:13:53;;;;;;;0.52;0.50;;;;;;;6.01;100.00;103209.59;5042265;28;20045;-53
2021/12/19 09:16:23;;;;;;;0.70;0.50;;;;;;;5.99;100.00;103203.53;5031315;28;20041;-53
2021/12/19 09:19:11;;;;;;;0.95;0.70;;;;;;;6.09;100.00;103213.88;5033792;28;20107;-55
2021/12/19 09:21:40;;;;;;;1.45;0.70;;;;;;;6.04;100.00;103212.16;5033626;28;20033;-55
2021/12/19 09:24:08;;;;;;;0.90;0.52;;;;;;;6.03;100.00;103205.22;5033777;28;20038;-53
2021/12/19 09:26:39;;;;;;;2.05;0.80;;;;;;;5.97;100.00;103207.84;5033596;28;20111;-53
2021/12/19 09:29:08;;;;;;;1.90;0.60;;;;;;;6.03;100.00;103207.84;5033631;28;20053;-54
2021/12/19 09:31:37;;;;;;;1.83;0.70;;;;;;;6.02;100.00;103204.34;5033253;28;20144;-53
2021/12/19 09:34:07;;;;;;;2.70;0.80;;;;;;;5.98;100.00;103207.84;5033471;28;20037;-53
2021/12/19 09:36:36;;;;;;;2.05;1.05;;;;;;;5.93;100.00;103204.38;5033258;28;20045;-52
2021/12/19 09:39:06;;;;;;;1.42;0.82;;;;;;;5.97;100.00;103198.28;5033530;28;20038;-53
2021/12/19 09:41:42;;;;;;;5.68;1.13;;;;;;;5.89;100.00;103210.50;5032821;28;20485;-53
2021/12/19 09:44:11;;;;;;;2.35;1.10;;;;;;;5.97;100.00;103221.78;5031045;28;20468;-54
2021/12/19 09:46:43;;;;;;;3.58;1.15;;;;;;;6.07;100.00;103223.47;5034727;28;20049;-53
2021/12/19 09:49:13;;;;;;;4.30;1.50;;;;;;;6.10;100.00;103219.97;5032636;28;20049;-55
2021/12/19 09:51:42;;;;;;;3.58;1.30;;;;;;;6.11;100.00;103210.38;5032764;28;20048;-54
2021/12/19 09:54:12;;;;;;;4.07;1.40;;;;;;;6.16;100.00;103206.84;5033034;28;20069;-55
2021/12/19 09:56:42;;;;;;;3.75;1.50;;;;;;;6.12;100.00;103212.97;5032950;28;20046;-53
2021/12/19 09:59:12;;;;;;;3.10;1.40;;;;;;;6.15;100.00;103202.50;5029027;28;20151;-55
2021/12/19 10:01:43;;;;;;;5.93;2.28;;;;;;;6.13;100.00;103204.25;5033326;28;20073;-54
2021/12/19 10:04:29;;;;;;;6.05;1.77;;;;;;;6.14;100.00;103200.75;5040499;28;20358;-55
2021/12/19 10:07:10;;;;;;;6.93;1.88;;;;;;;6.14;100.00;103194.69;5029208;28;20073;-55
2021/12/19 10:09:43;;;;;;;10.20;2.63;;;;;;;6.18;100.00;103197.25;5031150;28;20045;-53
2021/12/19 10:12:35;;;;;;;10.90;2.20;;;;;;;6.15;100.00;103194.66;5032560;28;20107;-53
2021/12/19 10:15:06;;;;;;;9.43;2.28;;;;;;;6.13;100.00;103185.97;5037693;28;20049;-54
2021/12/19 10:17:36;;;;;;;7.63;2.72;;;;;;;6.16;100.00;103193.78;5043613;28;20037;-54
2021/12/19 10:20:07;;;;;;;7.47;2.60;;;;;;;6.14;100.00;103187.69;5042825;28;20044;-55
2021/12/19 10:22:40;;;;;;;11.02;2.33;;;;;;;6.17;100.00;103189.41;5030888;28;20103;-52
2021/12/19 10:25:18;;;;;;;8.88;2.22;;;;;;;6.19;100.00;103183.31;5030053;28;20044;-53
2021/12/19 10:27:49;;;;;;;6.43;2.70;;;;;;;6.29;100.00;103170.16;5032448;28;20056;-52
2021/12/19 10:30:21;;;;;;;8.60;2.75;;;;;;;6.20;100.00;103168.47;5033928;28;20048;-53
2021/12/19 10:33:09;;;;;;;8.40;2.67;;;;;;;6.17;100.00;103158.91;5027743;28;20053;-52
2021/12/19 10:35:39;;;;;;;8.13;2.33;;;;;;;6.21;100.00;103158.00;5032035;28;20129;-54
2021/12/19 10:38:14;;;;;;;8.00;2.58;;;;;;;6.30;100.00;103156.19;5030683;28;20060;-53
2021/12/19 10:40:46;;;;;;;11.43;2.47;;;;;;;6.24;100.00;103149.28;5029359;28;20045;-53
2021/12/19 10:43:16;;;;;;;10.90;3.35;;;;;;;6.20;100.00;103151.06;5031511;28;20049;-53
2021/12/19 10:45:48;;;;;;;9.07;2.42;;;;;;;6.24;100.00;103147.53;5032518;28;20169;-55
2021/12/19 10:48:25;;;;;;;7.40;2.70;;;;;;;6.18;100.00;103141.50;5032202;28;20370;-54
2021/12/19 10:50:57;;;;;;;7.28;2.75;;;;;;;6.26;100.00;103139.69;5031630;28;20048;-55
2021/12/19 10:53:28;;;;;;;6.10;2.50;;;;;;;6.32;100.00;103133.53;5032036;28;20054;-55
2021/12/19 10:55:57;;;;;;;9.60;2.38;;;;;;;6.37;100.00;103131.72;5032227;28;20555;-53
2021/12/19 10:58:31;;;;;;;8.88;2.60;;;;;;;6.38;100.00;103125.59;5034721;28;20045;-54
2021/12/19 11:01:05;;;;;;;6.47;2.40;;;;;;;6.34;100.00;103119.56;5028951;28;20045;-52
2021/12/19 11:03:38;;;;;;;8.18;2.50;;;;;;;6.31;100.00;103126.56;5029768;28;20049;-55
2021/12/19 11:06:15;;;;;;;7.70;2.35;;;;;;;6.27;100.00;103117.88;5032061;28;20136;-54
2021/12/19 11:08:50;;;;;;;9.02;2.08;;;;;;;6.27;100.00;103112.66;5032157;28;20054;-54
2021/12/19 11:11:56;;;;;;;7.95;2.20;;;;;;;6.38;100.00;103117.75;5031682;28;20473;-53
2021/12/19 11:14:27;;;;;;;6.38;2.63;;;;;;;6.41;100.00;103107.28;5004407;28;20053;-54
2021/12/19 11:16:57;;;;;;;7.68;2.25;;;;;;;6.44;100.00;103109.84;5032491;28;20041;-54
2021/12/19 11:19:28;;;;;;;6.32;2.35;;;;;;;6.45;100.00;103098.53;5031364;28;20041;-54
2021/12/19 11:22:23;;;;;;;8.13;2.67;;;;;;;6.47;100.00;103108.97;5034363;28;20171;-54
2021/12/19 11:24:52;;;;;;;5.72;2.03;;;;;;;6.41;100.00;103105.53;5034442;28;20044;-55
2021/12/19 11:27:21;;;;;;;9.38;2.83;;;;;;;6.47;100.00;103103.75;5035942;28;20538;-55
2021/12/19 11:29:51;;;;;;;9.07;3.00;;;;;;;6.47;100.00;103108.97;5035550;28;20119;-54
2021/12/19 11:32:24;;;;;;;9.38;2.42;;;;;;;6.47;100.00;103101.13;5035377;28;20056;-55
2021/12/19 11:35:03;;;;;;;8.75;2.47;;;;;;;6.47;100.00;103091.53;5035511;28;20049;-54
2021/12/19 11:37:34;;;;;;;13.43;2.95;;;;;;;6.46;100.00;103097.63;5035437;28;20504;-52
2021/12/19 11:40:05;;;;;;;7.50;2.50;;;;;;;6.42;100.00;103095.94;5035042;28;20111;-56
2021/12/19 11:42:35;;;;;;;7.93;2.40;;;;;;;6.57;100.00;103095.75;5032225;28;20076;-54
2021/12/19 11:45:28;;;;;;;6.65;2.17;;;;;;;6.49;100.00;103094.09;5033610;28;20056;-54
2021/12/19 11:47:58;;;;;;;9.88;3.05;;;;;;;6.47;100.00;103085.44;5034753;28;20100;-54
2021/12/19 11:50:30;;;;;;;9.77;2.72;;;;;;;6.39;100.00;103088.13;5035088;28;20053;-54
2021/12/19 11:53:00;;;;;;;7.78;2.53;;;;;;;6.41;100.00;103086.38;5047513;28;20056;-54
2021/12/19 11:55:36;;;;;;;9.55;2.72;;;;;;;6.47;100.00;103088.06;5050638;28;20487;-54
2021/12/19 11:58:30;;;;;;;10.82;3.08;;;;;;;6.42;100.00;103090.69;5029005;28;20559;-55
2021/12/19 12:01:08;;;;;;;7.13;2.53;;;;;;;6.44;100.00;103086.34;5034161;28;20488;-54
2021/12/19 12:03:49;;;;;;;8.93;2.65;;;;;;;6.48;100.00;103081.94;5036726;28;20056;-55
2021/12/19 12:06:39;;;;;;;7.72;2.30;;;;;;;6.52;100.00;103070.56;5025864;28;20034;-52
2021/12/19 12:09:28;;;;;;;7.60;2.38;;;;;;;6.51;100.00;103061.84;5012517;28;20053;-53
2021/12/19 12:12:23;;;;;;;8.43;2.65;;;;;;;6.54;100.00;103063.56;5013016;28;20481;-56
2021/12/19 12:14:55;;;;;;;8.15;1.88;;;;;;;6.59;100.00;103066.97;5017041;28;20050;-55
2021/12/19 12:17:46;;;;;;;8.48;2.10;;;;;;;6.55;100.00;103052.22;4965955;28;96365;-53
2021/12/19 12:20:18;;;;;;;7.07;1.88;;;;;;;6.53;100.00;103049.63;5072994;28;20511;-55
2021/12/19 12:22:57;;;;;;;5.05;1.55;;;;;;;6.48;100.00;103051.44;5072171;28;20048;-52
2021/12/19 12:25:33;;;;;;;5.55;1.48;;;;;;;6.52;100.00;103039.19;5073755;28;20098;-51
2021/12/19 12:28:06;;;;;;;6.55;1.60;;;;;;;6.51;100.00;103033.09;5073745;28;20051;-54
2021/12/19 12:30:40;;;;;;;6.82;1.80;;;;;;;6.50;100.00;103023.50;5074201;28;20062;-55